X  Sluiten METAR luchtvaart weer gegevens      EBBR Brussels Airport
Temperatuur
17°C Temperatuur
10°C Dauwpunt
64% Vochtigheid



Wind
7 MPH
11 KM/U
3 M/S
6 KTS



320°
NW
Huidig weer

Lichte bewolking Lichte bewolking
Luchtdruk 1012.87 (hPa) - 29.91 (inHg)
Zicht 6 (mijl) - 9.7 (km)
Vliegveld
Vliegveld code EBBR

Locatie : Brussels Airport
Afstand: 14 (mi)

Metar:
EBBR 131850Z 32006KT 9999 FEW038 17/10 Q1013 NOSIG

Tijd: 13-07-2024 20:50 CEST